PAL A320 at Dumaguete on Aug 14th 2018, tyre failure on roll out

Last Update: September 7, 2018 / 15:54:51 GMT/Zulu time

Bookmark this article
Incident Facts

Date of incident
Aug 14, 2018

Classification
Incident

Aircraft Registration
RP-C8397

Aircraft Type
Airbus A320

ICAO Type Designator
A320

Airport ICAO Code
RPVD

A PAL Philippine Airlines Airbus A320-200, registration RP-C8397 from Manila to Dumaguete (Philippines) with 115 passengers and 6 crew, landed on Dumaguete's runway 27 at about 06:30L (22:30Z Aug 13th) but burst a number of left hand main tyres during the roll out and became disabled on the runway.

The Department of Transport Philippines reported the aircraft experienced left hand main tyre failures during roll out and became disabled on runway 09. A NOTAM was immediately issued.

On Sep 7th 2018 the CAA Philippines (CAAP) reported the aircraft blew two left main tyres on landing, the damage to the aircraft was unknown. The occurrence was rated a serious incident and is being investigated.

Related NOTAMs:
C0606/18 NOTAMR C0605/18
Q) RPHI/QMRLC/IV/NBO/A /000/999/0920N12318E005
A) RPVD B) 1808140138 C) 1808141300
E) RWY27 CLSD DUE DISABLED ACFT ON THE RWY.

C0605/18 NOTAMN
Q) RPHI/QMRLC/IV/NBO/A /000/999/0920N12318E005
A) RPVD B) 1808132320 C) 1808141300 EST
E) RWY09/27 CLSD DUE DISABLED AIRCRAFT ON THE RWY.

C0607/18 NOTAMN
Q) RPHI/QMRLT/IV/NBO/A /000/999/0920N12318E005
A) RPVD B) 1808140143 C) 1808141000
E) RWY09 OPEN ONLY TO LGT SINGLE ENGINE ACFT LTD TO
C206 AND BELOW. TRAINING FLT ARE NOT ALLOWED.

Metars:
RPVD 140100Z 22012KT 9999 FEW015 SCT220 32/25 Q1010 RMK A2983=
RPVD 140000Z 22008KT 9999 FEW015 SCT220 30/25 Q1009 RMK A2980=
RPVD 132100Z 20006KT 9999 FEW015 BKN220 28/25 Q1008 RMK A2977=
RPVD 131800Z 22006KT 9999 FEW015 BKN220 28/25 Q1008 RMK A2977=
RPVD 131500Z 00000KT 9999 FEW015 BKN220 29/24 Q1009 RMK A2980=
Incident Facts

Date of incident
Aug 14, 2018

Classification
Incident

Aircraft Registration
RP-C8397

Aircraft Type
Airbus A320

ICAO Type Designator
A320

Airport ICAO Code
RPVD

This article is published under license from Avherald.com. © of text by Avherald.com.
Article source

You can read 4 more free articles without a subscription.

Subscribe now and continue reading without any limits!

Are you a subscriber?
Login
Subscribe

Read unlimited articles and receive our daily update briefing. Gain better insights into what is happening in commercial aviation safety.

Free newsletter

Want to know more and stay ahead? Get our free weekly newsletter and join 4946 existing subscribers.

By subscribing, you accept our terms and conditions and confirm that you've read our privacy policy.

Send tip

Support AeroInside by sending a small tip amount.

Related articles

Newest articles

Subscribe today

Are you researching aviation incidents? Get access to AeroInside Insights, unlimited read access and receive the daily newsletter.

Pick your plan and subscribe

Partner

Blockaviation logo

A new way to document and demonstrate airworthiness compliance and aircraft value. Find out more.

Virtual Speech logo

ELITE Simulation Solutions is a leading global provider of Flight Simulation Training Devices, IFR training software as well as flight controls and related services. Find out more.

Get updates

Never miss an article from AeroInside. Subscribe to our free weekly newsletter and join 4946 existing subscribers.

By subscribing, you accept our terms and conditions and that you've read our privacy policy.

AeroInside Blog
Popular aircraft
Airbus A320
Boeing 737-800
Boeing 737-800 MAX
Popular airlines
American Airlines
United
Delta
Air Canada
Lufthansa
British Airways